sensor_id;sensor_type;location;lat;lon;timestamp;pressure;altitude;pressure_sealevel;temperature;humidity
63321;BME280;49449;48.800;9.534;2022-10-16T00:05:39;98428.56;;;14.76;53.32
63321;BME280;49449;48.800;9.534;2022-10-16T00:08:12;98437.06;;;14.73;53.48
63321;BME280;49449;48.800;9.534;2022-10-16T00:10:41;98439.75;;;14.78;53.14
63321;BME280;49449;48.800;9.534;2022-10-16T00:13:09;98452.78;;;14.80;53.06
63321;BME280;49449;48.800;9.534;2022-10-16T00:15:37;98456.22;;;14.81;53.17
63321;BME280;49449;48.800;9.534;2022-10-16T00:18:05;98451.44;;;14.77;53.23
63321;BME280;49449;48.800;9.534;2022-10-16T00:20:34;98438.13;;;14.77;53.23
63321;BME280;49449;48.800;9.534;2022-10-16T00:23:06;98439.72;;;14.73;53.55
63321;BME280;49449;48.800;9.534;2022-10-16T00:25:34;98447.44;;;14.75;53.42
63321;BME280;49449;48.800;9.534;2022-10-16T00:28:04;98447.97;;;14.77;53.41
63321;BME280;49449;48.800;9.534;2022-10-16T00:30:31;98452.50;;;14.76;53.29
63321;BME280;49449;48.800;9.534;2022-10-16T00:32:59;98450.38;;;14.78;53.22
63321;BME280;49449;48.800;9.534;2022-10-16T00:35:27;98450.63;;;14.77;53.17
63321;BME280;49449;48.800;9.534;2022-10-16T00:37:55;98460.19;;;14.73;53.31
63321;BME280;49449;48.800;9.534;2022-10-16T00:40:25;98454.84;;;14.68;53.49
63321;BME280;49449;48.800;9.534;2022-10-16T00:42:54;98455.06;;;14.61;53.41
63321;BME280;49449;48.800;9.534;2022-10-16T00:49:23;98444.41;;;14.61;53.64
63321;BME280;49449;48.800;9.534;2022-10-16T00:52:09;98446.00;;;14.57;53.44
63321;BME280;49449;48.800;9.534;2022-10-16T00:54:39;98441.47;;;14.57;53.16
63321;BME280;49449;48.800;9.534;2022-10-16T00:57:08;98443.88;;;14.59;53.39
63321;BME280;49449;48.800;9.534;2022-10-16T00:59:38;98446.78;;;14.57;53.28
63321;BME280;49449;48.800;9.534;2022-10-16T01:02:07;98449.44;;;14.57;53.00
63321;BME280;49449;48.800;9.534;2022-10-16T01:04:39;98446.78;;;14.57;53.28
63321;BME280;49449;48.800;9.534;2022-10-16T01:07:14;98449.84;;;14.44;53.70
63321;BME280;49449;48.800;9.534;2022-10-16T01:09:51;98440.34;;;14.48;53.22
63321;BME280;49449;48.800;9.534;2022-10-16T01:12:24;98442.22;;;14.53;53.32
63321;BME280;49449;48.800;9.534;2022-10-16T01:15:01;98447.84;;;14.56;52.82
63321;BME280;49449;48.800;9.534;2022-10-16T01:17:35;98451.56;;;14.55;52.82
63321;BME280;49449;48.800;9.534;2022-10-16T01:20:12;98460.03;;;14.52;52.97
63321;BME280;49449;48.800;9.534;2022-10-16T01:22:53;98467.97;;;14.47;53.06
63321;BME280;49449;48.800;9.534;2022-10-16T01:25:29;98458.72;;;14.50;53.01
63321;BME280;49449;48.800;9.534;2022-10-16T01:30:32;98474.13;;;14.48;53.02
63321;BME280;49449;48.800;9.534;2022-10-16T01:33:03;98472.25;;;14.48;52.73
63321;BME280;49449;48.800;9.534;2022-10-16T01:35:35;98466.41;;;14.46;52.71
63321;BME280;49449;48.800;9.534;2022-10-16T01:38:07;98467.63;;;14.38;53.19
63321;BME280;49449;48.800;9.534;2022-10-16T01:40:39;98472.94;;;14.38;52.86
63321;BME280;49449;48.800;9.534;2022-10-16T01:43:12;98479.28;;;14.32;53.23
63321;BME280;49449;48.800;9.534;2022-10-16T01:45:44;98466.03;;;14.37;52.87
63321;BME280;49449;48.800;9.534;2022-10-16T01:48:14;98451.66;;;14.38;52.70
63321;BME280;49449;48.800;9.534;2022-10-16T01:50:49;98459.09;;;14.36;52.99
63321;BME280;49449;48.800;9.534;2022-10-16T01:53:19;98464.16;;;14.38;52.72
63321;BME280;49449;48.800;9.534;2022-10-16T01:55:48;98466.53;;;14.34;52.68
63321;BME280;49449;48.800;9.534;2022-10-16T01:58:21;98458.03;;;14.32;52.90
63321;BME280;49449;48.800;9.534;2022-10-16T02:00:52;98458.84;;;14.38;52.75
63321;BME280;49449;48.800;9.534;2022-10-16T02:03:21;98448.75;;;14.40;52.39
63321;BME280;49449;48.800;9.534;2022-10-16T02:05:51;98451.38;;;14.35;52.66
63321;BME280;49449;48.800;9.534;2022-10-16T02:08:20;98454.56;;;14.32;52.83
63321;BME280;49449;48.800;9.534;2022-10-16T02:10:50;98448.72;;;14.35;52.60
63321;BME280;49449;48.800;9.534;2022-10-16T02:13:23;98456.94;;;14.33;52.59
63321;BME280;49449;48.800;9.534;2022-10-16T02:15:53;98442.06;;;14.32;52.84
63321;BME280;49449;48.800;9.534;2022-10-16T02:18:21;98446.31;;;14.33;52.77
63321;BME280;49449;48.800;9.534;2022-10-16T02:20:53;98442.06;;;14.32;52.80
63321;BME280;49449;48.800;9.534;2022-10-16T02:23:29;98447.94;;;14.34;52.59
63321;BME280;49449;48.800;9.534;2022-10-16T02:26:03;98445.28;;;14.34;52.59
63321;BME280;49449;48.800;9.534;2022-10-16T02:28:38;98451.63;;;14.33;52.49
63321;BME280;49449;48.800;9.534;2022-10-16T02:31:11;98450.59;;;14.34;52.87
63321;BME280;49449;48.800;9.534;2022-10-16T02:33:40;98454.56;;;14.37;52.82
63321;BME280;49449;48.800;9.534;2022-10-16T02:36:09;98451.91;;;14.37;52.50
63321;BME280;49449;48.800;9.534;2022-10-16T02:38:38;98458.06;;;14.37;52.52
63321;BME280;49449;48.800;9.534;2022-10-16T02:41:07;98456.19;;;14.38;52.59
63321;BME280;49449;48.800;9.534;2022-10-16T02:43:37;98452.69;;;14.32;52.78
63321;BME280;49449;48.800;9.534;2022-10-16T02:46:05;98448.13;;;14.28;52.85
63321;BME280;49449;48.800;9.534;2022-10-16T02:48:32;98451.59;;;14.28;52.64
63321;BME280;49449;48.800;9.534;2022-10-16T02:51:01;98451.34;;;14.30;52.92
63321;BME280;49449;48.800;9.534;2022-10-16T02:53:29;98449.50;;;14.30;52.92
63321;BME280;49449;48.800;9.534;2022-10-16T02:55:56;98446.28;;;14.28;52.92
63321;BME280;49449;48.800;9.534;2022-10-16T02:58:24;98444.69;;;14.27;52.71
63321;BME280;49449;48.800;9.534;2022-10-16T03:00:54;98444.44;;;14.29;52.56
63321;BME280;49449;48.800;9.534;2022-10-16T03:03:22;98444.19;;;14.30;52.36
63321;BME280;49449;48.800;9.534;2022-10-16T03:05:50;98447.88;;;14.29;52.83
63321;BME280;49449;48.800;9.534;2022-10-16T03:08:18;98451.34;;;14.30;52.29
63321;BME280;49449;48.800;9.534;2022-10-16T03:10:49;98459.88;;;14.32;52.63
63321;BME280;49449;48.800;9.534;2022-10-16T03:13:17;98455.34;;;14.32;52.50
63321;BME280;49449;48.800;9.534;2022-10-16T03:15:46;98453.75;;;14.31;52.71
63321;BME280;49449;48.800;9.534;2022-10-16T03:18:15;98456.94;;;14.33;52.39
63321;BME280;49449;48.800;9.534;2022-10-16T03:20:43;98456.94;;;14.33;52.30
63321;BME280;49449;48.800;9.534;2022-10-16T03:23:11;98463.84;;;14.29;52.52
63321;BME280;49449;48.800;9.534;2022-10-16T03:25:39;98461.97;;;14.30;52.61
63321;BME280;49449;48.800;9.534;2022-10-16T03:28:07;98455.84;;;14.29;52.38
63321;BME280;49449;48.800;9.534;2022-10-16T03:30:34;98462.78;;;14.30;52.45
63321;BME280;49449;48.800;9.534;2022-10-16T03:33:02;98459.06;;;14.31;52.23
63321;BME280;49449;48.800;9.534;2022-10-16T03:35:33;98462.75;;;14.25;52.78
63321;BME280;49449;48.800;9.534;2022-10-16T03:38:01;98459.53;;;14.23;52.72
63321;BME280;49449;48.800;9.534;2022-10-16T03:40:28;98456.91;;;14.28;52.37
63321;BME280;49449;48.800;9.534;2022-10-16T03:42:58;98457.44;;;14.25;52.25
63321;BME280;49449;48.800;9.534;2022-10-16T03:45:27;98463.53;;;14.26;52.55
63321;BME280;49449;48.800;9.534;2022-10-16T03:47:55;98456.59;;;14.25;52.54
63321;BME280;49449;48.800;9.534;2022-10-16T03:50:22;98451.56;;;14.23;52.48
63321;BME280;49449;48.800;9.534;2022-10-16T03:52:51;98468.56;;;14.22;52.54
63321;BME280;49449;48.800;9.534;2022-10-16T03:55:19;98468.31;;;14.24;52.21
63321;BME280;49449;48.800;9.534;2022-10-16T03:57:47;98455.81;;;14.24;52.52
63321;BME280;49449;48.800;9.534;2022-10-16T04:00:15;98472.84;;;14.23;52.45
63321;BME280;49449;48.800;9.534;2022-10-16T04:02:43;98472.84;;;14.23;52.40
63321;BME280;49449;48.800;9.534;2022-10-16T04:05:11;98471.47;;;14.20;52.26
63321;BME280;49449;48.800;9.534;2022-10-16T04:07:39;98462.66;;;14.15;52.62
63321;BME280;49449;48.800;9.534;2022-10-16T04:10:09;98460.75;;;14.10;52.72
63321;BME280;49449;48.800;9.534;2022-10-16T04:12:39;98467.66;;;14.11;52.18
63321;BME280;49449;48.800;9.534;2022-10-16T04:15:07;98472.16;;;14.06;52.67
63321;BME280;49449;48.800;9.534;2022-10-16T04:17:35;98472.16;;;14.06;52.51
63321;BME280;49449;48.800;9.534;2022-10-16T04:20:04;98478.78;;;14.08;52.22
63321;BME280;49449;48.800;9.534;2022-10-16T04:22:31;98475.09;;;14.09;51.99
63321;BME280;49449;48.800;9.534;2022-10-16T04:24:59;98473.47;;;14.08;52.30
63321;BME280;49449;48.800;9.534;2022-10-16T04:27:28;98479.59;;;14.09;52.05
63321;BME280;49449;48.800;9.534;2022-10-16T04:29:57;98489.66;;;14.07;52.12
63321;BME280;49449;48.800;9.534;2022-10-16T04:32:25;98492.03;;;14.03;52.14
63321;BME280;49449;48.800;9.534;2022-10-16T04:34:53;98484.84;;;13.98;52.58
63321;BME280;49449;48.800;9.534;2022-10-16T04:37:23;98487.97;;;13.95;52.20
63321;BME280;49449;48.800;9.534;2022-10-16T04:39:51;98492.75;;;13.93;52.30
63321;BME280;49449;48.800;9.534;2022-10-16T04:42:19;98489.78;;;13.90;52.44
63321;BME280;49449;48.800;9.534;2022-10-16T04:44:48;98491.13;;;13.92;52.50
63321;BME280;49449;48.800;9.534;2022-10-16T04:47:18;98484.53;;;13.95;52.12
63321;BME280;49449;48.800;9.534;2022-10-16T04:49:46;98483.47;;;13.96;52.38
63321;BME280;49449;48.800;9.534;2022-10-16T04:52:14;98496.50;;;13.97;52.22
63321;BME280;49449;48.800;9.534;2022-10-16T04:54:41;98490.13;;;13.98;52.15
63321;BME280;49449;48.800;9.534;2022-10-16T04:57:11;98500.78;;;13.98;52.23
63321;BME280;49449;48.800;9.534;2022-10-16T04:59:39;98493.25;;;13.90;52.23
63321;BME280;49449;48.800;9.534;2022-10-16T05:02:08;98506.72;;;13.83;52.37
63321;BME280;49449;48.800;9.534;2022-10-16T05:04:36;98504.91;;;13.89;52.66
63321;BME280;49449;48.800;9.534;2022-10-16T05:07:03;98504.66;;;13.91;52.56
63321;BME280;49449;48.800;9.534;2022-10-16T05:09:31;98511.09;;;13.95;52.44
63321;BME280;49449;48.800;9.534;2022-10-16T05:11:59;98512.97;;;13.99;52.25
63321;BME280;49449;48.800;9.534;2022-10-16T05:14:29;98507.38;;;13.96;52.08
63321;BME280;49449;48.800;9.534;2022-10-16T05:16:57;98510.81;;;13.96;52.16
63321;BME280;49449;48.800;9.534;2022-10-16T05:19:27;98513.22;;;13.98;52.25
63321;BME280;49449;48.800;9.534;2022-10-16T05:21:55;98516.41;;;13.95;52.31
63321;BME280;49449;48.800;9.534;2022-10-16T05:24:23;98519.59;;;13.97;52.16
63321;BME280;49449;48.800;9.534;2022-10-16T05:26:51;98528.59;;;13.96;52.15
63321;BME280;49449;48.800;9.534;2022-10-16T05:29:18;98521.44;;;13.96;51.90
63321;BME280;49449;48.800;9.534;2022-10-16T05:31:46;98520.66;;;13.96;51.99
63321;BME280;49449;48.800;9.534;2022-10-16T05:34:14;98523.00;;;13.92;52.37
63321;BME280;49449;48.800;9.534;2022-10-16T05:36:43;98519.25;;;13.88;52.22
63321;BME280;49449;48.800;9.534;2022-10-16T05:39:11;98515.78;;;13.88;52.10
63321;BME280;49449;48.800;9.534;2022-10-16T05:41:39;98510.16;;;13.84;52.34
63321;BME280;49449;48.800;9.534;2022-10-16T05:44:07;98522.16;;;13.87;52.25
63321;BME280;49449;48.800;9.534;2022-10-16T05:46:34;98523.50;;;13.89;52.28
63321;BME280;49449;48.800;9.534;2022-10-16T05:49:02;98524.31;;;13.90;51.92
63321;BME280;49449;48.800;9.534;2022-10-16T05:51:30;98527.75;;;13.90;51.93
63321;BME280;49449;48.800;9.534;2022-10-16T05:53:59;98525.66;;;13.92;52.08
63321;BME280;49449;48.800;9.534;2022-10-16T05:56:27;98535.72;;;13.90;52.05
63321;BME280;49449;48.800;9.534;2022-10-16T05:58:55;98524.00;;;13.86;51.95
63321;BME280;49449;48.800;9.534;2022-10-16T06:01:22;98537.53;;;13.85;52.23
63321;BME280;49449;48.800;9.534;2022-10-16T06:03:51;98534.03;;;13.79;52.37
63321;BME280;49449;48.800;9.534;2022-10-16T06:06:20;98543.16;;;13.88;51.92
63321;BME280;49449;48.800;9.534;2022-10-16T06:08:49;98539.94;;;13.86;51.90
63321;BME280;49449;48.800;9.534;2022-10-16T06:11:20;98544.44;;;13.86;51.97
63321;BME280;49449;48.800;9.534;2022-10-16T06:13:49;98537.34;;;13.91;51.81
63321;BME280;49449;48.800;9.534;2022-10-16T06:16:17;98549.06;;;13.95;51.74
63321;BME280;49449;48.800;9.534;2022-10-16T06:18:46;98549.38;;;13.99;51.78
63321;BME280;49449;48.800;9.534;2022-10-16T06:21:16;98558.19;;;14.05;51.56
63321;BME280;49449;48.800;9.534;2022-10-16T06:23:44;98562.22;;;14.07;51.49
63321;BME280;49449;48.800;9.534;2022-10-16T06:26:14;98569.13;;;14.08;51.82
63321;BME280;49449;48.800;9.534;2022-10-16T06:28:44;98564.91;;;14.12;51.73
63321;BME280;49449;48.800;9.534;2022-10-16T06:31:13;98566.47;;;14.08;51.77
63321;BME280;49449;48.800;9.534;2022-10-16T06:33:41;98571.78;;;14.08;51.48
63321;BME280;49449;48.800;9.534;2022-10-16T06:36:11;98573.56;;;14.02;51.76
63321;BME280;49449;48.800;9.534;2022-10-16T06:38:39;98576.53;;;14.06;51.64
63321;BME280;49449;48.800;9.534;2022-10-16T06:41:09;98579.56;;;14.15;51.80
63321;BME280;49449;48.800;9.534;2022-10-16T06:43:38;98567.13;;;14.20;51.85
63321;BME280;49449;48.800;9.534;2022-10-16T06:46:10;98569.56;;;14.27;51.77
63321;BME280;49449;48.800;9.534;2022-10-16T06:48:38;98567.28;;;14.36;51.84
63321;BME280;49449;48.800;9.534;2022-10-16T06:51:08;98576.88;;;14.42;51.86
63321;BME280;49449;48.800;9.534;2022-10-16T06:53:39;98574.09;;;14.54;51.36
63321;BME280;49449;48.800;9.534;2022-10-16T06:56:15;98567.78;;;14.60;51.44
63321;BME280;49449;48.800;9.534;2022-10-16T06:58:44;98581.09;;;14.65;51.25
63321;BME280;49449;48.800;9.534;2022-10-16T07:01:14;98585.50;;;14.82;51.00
63321;BME280;49449;48.800;9.534;2022-10-16T07:03:43;98589.13;;;15.03;51.34
63321;BME280;49449;48.800;9.534;2022-10-16T07:06:13;98599.16;;;15.28;50.74
63321;BME280;49449;48.800;9.534;2022-10-16T07:08:43;98605.63;;;15.42;50.78
63321;BME280;49449;48.800;9.534;2022-10-16T07:11:13;98603.03;;;15.52;50.98
63321;BME280;49449;48.800;9.534;2022-10-16T07:13:42;98613.69;;;15.58;50.55
63321;BME280;49449;48.800;9.534;2022-10-16T07:16:14;98609.16;;;15.58;50.62
63321;BME280;49449;48.800;9.534;2022-10-16T07:18:43;98611.56;;;15.60;50.49
63321;BME280;49449;48.800;9.534;2022-10-16T07:21:14;98606.75;;;15.57;50.31
63321;BME280;49449;48.800;9.534;2022-10-16T07:23:43;98608.34;;;15.52;50.21
63321;BME280;49449;48.800;9.534;2022-10-16T07:26:10;98607.28;;;15.48;50.12
63321;BME280;49449;48.800;9.534;2022-10-16T07:28:38;98616.00;;;15.44;50.04
63321;BME280;49449;48.800;9.534;2022-10-16T07:31:10;98621.06;;;15.40;50.50
63321;BME280;49449;48.800;9.534;2022-10-16T07:33:43;98630.63;;;15.36;50.46
63321;BME280;49449;48.800;9.534;2022-10-16T07:36:12;98627.66;;;15.32;50.62
63321;BME280;49449;48.800;9.534;2022-10-16T07:38:41;98638.03;;;15.34;50.99
63321;BME280;49449;48.800;9.534;2022-10-16T07:41:11;98642.56;;;15.33;50.66
63321;BME280;49449;48.800;9.534;2022-10-16T07:43:40;98646.31;;;15.32;50.68
63321;BME280;49449;48.800;9.534;2022-10-16T07:46:08;98654.53;;;15.31;51.13
63321;BME280;49449;48.800;9.534;2022-10-16T07:48:35;98657.19;;;15.31;50.66
63321;BME280;49449;48.800;9.534;2022-10-16T07:51:06;98664.66;;;15.29;50.83
63321;BME280;49449;48.800;9.534;2022-10-16T07:53:34;98667.56;;;15.27;51.18
63321;BME280;49449;48.800;9.534;2022-10-16T07:56:04;98668.81;;;15.25;50.95
63321;BME280;49449;48.800;9.534;2022-10-16T07:58:33;98672.00;;;15.22;50.95
63321;BME280;49449;48.800;9.534;2022-10-16T08:01:04;98681.03;;;15.21;51.07
63321;BME280;49449;48.800;9.534;2022-10-16T08:03:33;98669.31;;;15.22;50.77
63321;BME280;49449;48.800;9.534;2022-10-16T08:06:01;98674.66;;;15.22;51.04
63321;BME280;49449;48.800;9.534;2022-10-16T08:08:31;98666.13;;;15.20;51.17
63321;BME280;49449;48.800;9.534;2022-10-16T08:10:58;98666.38;;;15.18;51.35
63321;BME280;49449;48.800;9.534;2022-10-16T08:13:26;98670.91;;;15.18;51.59
63321;BME280;49449;48.800;9.534;2022-10-16T08:15:54;98681.84;;;15.21;51.40
63321;BME280;49449;48.800;9.534;2022-10-16T08:18:22;98682.38;;;15.23;51.61
63321;BME280;49449;48.800;9.534;2022-10-16T08:20:55;98682.44;;;15.28;51.69
63321;BME280;49449;48.800;9.534;2022-10-16T08:23:26;98680.34;;;15.30;51.86
63321;BME280;49449;48.800;9.534;2022-10-16T08:26:01;98680.34;;;15.30;51.72
63321;BME280;49449;48.800;9.534;2022-10-16T08:28:29;98676.91;;;15.35;51.92
63321;BME280;49449;48.800;9.534;2022-10-16T08:31:05;98688.34;;;15.36;51.94
63321;BME280;49449;48.800;9.534;2022-10-16T08:33:33;98682.56;;;15.44;51.78
63321;BME280;49449;48.800;9.534;2022-10-16T08:36:03;98681.25;;;15.46;51.68
63321;BME280;49449;48.800;9.534;2022-10-16T08:38:32;98685.00;;;15.50;51.50
63321;BME280;49449;48.800;9.534;2022-10-16T08:41:21;98686.34;;;15.53;51.64
63321;BME280;49449;48.800;9.534;2022-10-16T08:44:04;98688.78;;;15.60;51.76
63321;BME280;49449;48.800;9.534;2022-10-16T08:46:43;98691.78;;;15.68;51.85
63321;BME280;49449;48.800;9.534;2022-10-16T08:49:17;98686.28;;;15.85;51.57
63321;BME280;49449;48.800;9.534;2022-10-16T08:51:50;98695.94;;;15.97;51.48
63321;BME280;49449;48.800;9.534;2022-10-16T08:54:29;98695.66;;;15.98;51.14
63321;BME280;49449;48.800;9.534;2022-10-16T08:57:09;98711.69;;;16.03;51.16
63321;BME280;49449;48.800;9.534;2022-10-16T08:59:38;98705.06;;;16.11;51.50
63321;BME280;49449;48.800;9.534;2022-10-16T09:02:22;98704.81;;;16.13;51.30
63321;BME280;49449;48.800;9.534;2022-10-16T09:05:00;98716.03;;;16.20;51.15
63321;BME280;49449;48.800;9.534;2022-10-16T09:07:38;98713.91;;;16.22;51.07
63321;BME280;49449;48.800;9.534;2022-10-16T09:10:26;98714.16;;;16.20;51.23
63321;BME280;49449;48.800;9.534;2022-10-16T09:13:03;98710.97;;;16.18;51.27
63321;BME280;49449;48.800;9.534;2022-10-16T09:15:41;98704.06;;;16.17;51.41
63321;BME280;49449;48.800;9.534;2022-10-16T09:18:17;98716.81;;;16.15;51.47
63321;BME280;49449;48.800;9.534;2022-10-16T09:20:51;98727.47;;;16.15;51.70
63321;BME280;49449;48.800;9.534;2022-10-16T09:23:25;98728.31;;;16.21;52.10
63321;BME280;49449;48.800;9.534;2022-10-16T09:25:56;98735.00;;;16.28;51.18
63321;BME280;49449;48.800;9.534;2022-10-16T09:28:28;98722.50;;;16.34;51.49
63321;BME280;49449;48.800;9.534;2022-10-16T09:31:00;98721.47;;;16.40;51.63
63321;BME280;49449;48.800;9.534;2022-10-16T09:33:35;98714.53;;;16.44;51.66
63321;BME280;49449;48.800;9.534;2022-10-16T09:36:11;98710.00;;;16.50;52.12
63321;BME280;49449;48.800;9.534;2022-10-16T09:38:46;98715.38;;;16.55;52.07
63321;BME280;49449;48.800;9.534;2022-10-16T09:41:18;98723.66;;;16.64;52.20
63321;BME280;49449;48.800;9.534;2022-10-16T09:43:52;98727.66;;;16.72;52.22
63321;BME280;49449;48.800;9.534;2022-10-16T09:46:26;98722.88;;;16.79;51.96
63321;BME280;49449;48.800;9.534;2022-10-16T09:48:57;98729.06;;;16.84;52.07
63321;BME280;49449;48.800;9.534;2022-10-16T09:51:28;98738.16;;;16.89;51.45
63321;BME280;49449;48.800;9.534;2022-10-16T09:53:59;98736.81;;;16.91;51.63
63321;BME280;49449;48.800;9.534;2022-10-16T09:56:29;98739.47;;;16.96;51.65
63321;BME280;49449;48.800;9.534;2022-10-16T09:59:02;98736.28;;;17.04;51.65
63321;BME280;49449;48.800;9.534;2022-10-16T10:01:36;98742.16;;;17.12;51.18
63321;BME280;49449;48.800;9.534;2022-10-16T10:04:05;98746.72;;;17.21;51.35
63321;BME280;49449;48.800;9.534;2022-10-16T10:06:35;98748.31;;;17.28;50.99
63321;BME280;49449;48.800;9.534;2022-10-16T10:09:14;98743.78;;;17.28;51.03
63321;BME280;49449;48.800;9.534;2022-10-16T10:11:49;98741.63;;;17.35;50.88
63321;BME280;49449;48.800;9.534;2022-10-16T10:14:28;98740.06;;;17.45;50.53
63321;BME280;49449;48.800;9.534;2022-10-16T10:17:16;98742.19;;;17.68;50.53
63321;BME280;49449;48.800;9.534;2022-10-16T10:19:47;98745.09;;;17.82;49.96
63321;BME280;49449;48.800;9.534;2022-10-16T10:22:29;98748.03;;;17.91;49.76
63321;BME280;49449;48.800;9.534;2022-10-16T10:25:14;98744.97;;;18.23;49.46
63321;BME280;49449;48.800;9.534;2022-10-16T10:28:06;98731.53;;;18.54;49.13
63321;BME280;49449;48.800;9.534;2022-10-16T10:30:44;98744.75;;;18.80;49.04
63321;BME280;49449;48.800;9.534;2022-10-16T10:33:20;98733.19;;;18.89;48.57
63321;BME280;49449;48.800;9.534;2022-10-16T10:36:05;98736.09;;;18.93;47.54
63321;BME280;49449;48.800;9.534;2022-10-16T10:38:49;98742.25;;;18.99;47.10
63321;BME280;49449;48.800;9.534;2022-10-16T10:41:59;98744.19;;;19.22;46.35
63321;BME280;49449;48.800;9.534;2022-10-16T10:44:38;98748.81;;;19.51;46.21
63321;BME280;49449;48.800;9.534;2022-10-16T10:47:19;98749.44;;;19.72;45.52
63321;BME280;49449;48.800;9.534;2022-10-16T10:49:57;98746.59;;;19.88;44.42
63321;BME280;49449;48.800;9.534;2022-10-16T10:52:38;98744.22;;;20.10;43.35
63321;BME280;49449;48.800;9.534;2022-10-16T10:55:27;98742.03;;;20.12;42.70
63321;BME280;49449;48.800;9.534;2022-10-16T10:58:15;98739.66;;;20.35;42.25
63321;BME280;49449;48.800;9.534;2022-10-16T11:00:51;98737.44;;;20.61;41.89
63321;BME280;49449;48.800;9.534;2022-10-16T11:03:37;98738.47;;;20.84;42.22
63321;BME280;49449;48.800;9.534;2022-10-16T11:06:12;98740.38;;;21.03;41.69
63321;BME280;49449;48.800;9.534;2022-10-16T11:08:47;98737.13;;;21.20;41.78
63321;BME280;49449;48.800;9.534;2022-10-16T11:11:20;98734.41;;;21.39;41.57
63321;BME280;49449;48.800;9.534;2022-10-16T11:13:55;98733.66;;;21.52;40.39
63321;BME280;49449;48.800;9.534;2022-10-16T11:16:27;98730.50;;;21.64;40.01
63321;BME280;49449;48.800;9.534;2022-10-16T11:19:01;98735.69;;;21.74;40.03
63321;BME280;49449;48.800;9.534;2022-10-16T11:21:36;98731.91;;;21.89;40.25
63321;BME280;49449;48.800;9.534;2022-10-16T11:24:15;98731.22;;;21.97;39.74
63321;BME280;49449;48.800;9.534;2022-10-16T11:26:46;98720.38;;;22.02;38.90
63321;BME280;49449;48.800;9.534;2022-10-16T11:29:19;98720.28;;;21.93;38.63
63321;BME280;49449;48.800;9.534;2022-10-16T11:31:54;98717.50;;;21.99;37.65
63321;BME280;49449;48.800;9.534;2022-10-16T11:34:31;98716.69;;;21.98;37.67
63321;BME280;49449;48.800;9.534;2022-10-16T11:37:05;98716.81;;;22.07;37.14
63321;BME280;49449;48.800;9.534;2022-10-16T11:39:38;98717.50;;;22.12;37.17
63321;BME280;49449;48.800;9.534;2022-10-16T11:42:10;98711.53;;;22.16;37.37
63321;BME280;49449;48.800;9.534;2022-10-16T11:44:47;98711.63;;;22.24;37.41
63321;BME280;49449;48.800;9.534;2022-10-16T11:47:25;98711.13;;;22.22;35.76
63321;BME280;49449;48.800;9.534;2022-10-16T11:50:09;98709.91;;;22.15;36.51
63321;BME280;49449;48.800;9.534;2022-10-16T11:52:48;98709.44;;;22.26;35.72
63321;BME280;49449;48.800;9.534;2022-10-16T11:55:21;98705.03;;;22.30;35.85
63321;BME280;49449;48.800;9.534;2022-10-16T11:58:00;98707.72;;;22.30;34.24
63321;BME280;49449;48.800;9.534;2022-10-16T12:00:40;98717.91;;;22.20;34.00
63321;BME280;49449;48.800;9.534;2022-10-16T12:03:22;98705.53;;;22.05;33.75
63321;BME280;49449;48.800;9.534;2022-10-16T12:06:09;98708.84;;;22.02;33.94
63321;BME280;49449;48.800;9.534;2022-10-16T12:08:43;98697.19;;;21.79;33.46
63321;BME280;49449;48.800;9.534;2022-10-16T12:11:35;98705.63;;;21.72;33.68
63321;BME280;49449;48.800;9.534;2022-10-16T12:14:16;98700.25;;;21.86;33.10
63321;BME280;49449;48.800;9.534;2022-10-16T12:16:53;98700.66;;;21.93;34.19
63321;BME280;49449;48.800;9.534;2022-10-16T12:19:29;98702.75;;;21.96;34.93
63321;BME280;49449;48.800;9.534;2022-10-16T12:22:00;98696.28;;;21.97;34.97
63321;BME280;49449;48.800;9.534;2022-10-16T12:24:33;98704.03;;;21.85;33.40
63321;BME280;49449;48.800;9.534;2022-10-16T12:27:03;98693.28;;;21.99;34.04
63321;BME280;49449;48.800;9.534;2022-10-16T12:29:36;98684.22;;;22.08;34.77
63321;BME280;49449;48.800;9.534;2022-10-16T12:32:22;98690.69;;;22.07;33.78
63321;BME280;49449;48.800;9.534;2022-10-16T12:35:18;98695.88;;;22.04;33.34
63321;BME280;49449;48.800;9.534;2022-10-16T12:37:48;98690.09;;;22.10;34.12
63321;BME280;49449;48.800;9.534;2022-10-16T12:40:26;98690.50;;;22.18;34.42
63321;BME280;49449;48.800;9.534;2022-10-16T12:42:55;98691.38;;;22.27;34.02
63321;BME280;49449;48.800;9.534;2022-10-16T12:45:29;98691.09;;;22.28;35.15
63321;BME280;49449;48.800;9.534;2022-10-16T12:47:58;98690.78;;;22.30;34.93
63321;BME280;49449;48.800;9.534;2022-10-16T12:50:31;98688.69;;;22.27;34.67
63321;BME280;49449;48.800;9.534;2022-10-16T12:53:01;98702.66;;;22.15;35.75
63321;BME280;49449;48.800;9.534;2022-10-16T12:55:34;98703.03;;;22.22;36.13
63321;BME280;49449;48.800;9.534;2022-10-16T12:58:35;98701.84;;;22.15;35.96
63321;BME280;49449;48.800;9.534;2022-10-16T13:01:12;98700.34;;;22.22;35.17
63321;BME280;49449;48.800;9.534;2022-10-16T13:06:40;98700.53;;;22.26;35.31
63321;BME280;49449;48.800;9.534;2022-10-16T13:09:29;98710.81;;;22.10;35.75
63321;BME280;49449;48.800;9.534;2022-10-16T13:12:10;98711.31;;;21.98;35.15
63321;BME280;49449;48.800;9.534;2022-10-16T13:14:58;98713.22;;;21.84;34.76
63321;BME280;49449;48.800;9.534;2022-10-16T13:17:36;98714.59;;;21.81;34.46
63321;BME280;49449;48.800;9.534;2022-10-16T13:20:16;98713.69;;;21.72;35.24
63321;BME280;49449;48.800;9.534;2022-10-16T13:22:53;98726.66;;;21.37;34.76
63321;BME280;49449;48.800;9.534;2022-10-16T13:25:27;98723.50;;;21.16;34.95
63321;BME280;49449;48.800;9.534;2022-10-16T13:28:00;98731.19;;;21.23;35.63
63321;BME280;49449;48.800;9.534;2022-10-16T13:30:35;98728.13;;;21.29;36.35
63321;BME280;49449;48.800;9.534;2022-10-16T13:33:10;98724.63;;;21.29;36.35
63321;BME280;49449;48.800;9.534;2022-10-16T13:35:48;98731.69;;;21.25;36.56
63321;BME280;49449;48.800;9.534;2022-10-16T13:38:18;98721.44;;;21.27;36.08
63321;BME280;49449;48.800;9.534;2022-10-16T13:40:53;98717.09;;;21.31;36.14